createdAt,value
2019-01-31T00:02:29.014Z,99.90
2019-01-31T00:05:12.264Z,99.90
2019-01-31T00:07:52.650Z,99.90
2019-01-31T00:10:32.939Z,99.90
2019-01-31T00:13:22.998Z,99.90
2019-01-31T00:16:18.332Z,99.90
2019-01-31T00:19:13.902Z,99.90
2019-01-31T00:21:57.635Z,99.90
2019-01-31T00:24:31.940Z,99.90
2019-01-31T00:27:12.410Z,99.90
2019-01-31T00:30:04.359Z,99.90
2019-01-31T00:32:52.712Z,99.90
2019-01-31T00:35:42.146Z,99.90
2019-01-31T00:38:25.761Z,99.90
2019-01-31T00:41:15.031Z,99.90
2019-01-31T00:44:10.380Z,99.90
2019-01-31T00:46:44.556Z,99.90
2019-01-31T00:49:21.815Z,99.90
2019-01-31T00:52:05.085Z,99.90
2019-01-31T00:54:48.227Z,99.90
2019-01-31T00:57:36.385Z,99.90
2019-01-31T01:00:16.897Z,99.90
2019-01-31T01:03:16.416Z,99.90
2019-01-31T01:05:47.950Z,99.90
2019-01-31T01:08:28.672Z,99.90
2019-01-31T01:11:09.081Z,99.90
2019-01-31T01:13:43.203Z,99.90
2019-01-31T01:16:26.093Z,99.90
2019-01-31T01:19:03.287Z,99.90
2019-01-31T01:21:43.392Z,99.90
2019-01-31T01:24:34.333Z,99.90
2019-01-31T01:27:14.964Z,99.90
2019-01-31T01:29:52.483Z,99.90
2019-01-31T01:32:42.211Z,99.90
2019-01-31T01:35:22.670Z,99.90
2019-01-31T01:37:56.691Z,99.90
2019-01-31T01:40:28.239Z,99.90
2019-01-31T01:43:14.782Z,99.90
2019-01-31T01:46:04.101Z,99.90
2019-01-31T01:48:44.466Z,99.90
2019-01-31T01:51:18.579Z,99.90
2019-01-31T01:54:01.799Z,99.90
2019-01-31T01:56:33.512Z,99.90
2019-01-31T01:59:17.379Z,99.90
2019-01-31T02:02:04.231Z,99.90
2019-01-31T02:04:44.442Z,99.90
2019-01-31T02:07:18.581Z,99.90
2019-01-31T02:10:10.956Z,99.90
2019-01-31T02:12:51.150Z,99.90
2019-01-31T02:15:34.499Z,99.90
2019-01-31T02:18:06.008Z,99.90
2019-01-31T02:21:03.324Z,99.90
2019-01-31T02:24:11.879Z,99.90
2019-01-31T02:27:02.987Z,99.90
2019-01-31T02:29:43.561Z,99.90
2019-01-31T02:32:41.532Z,99.90
2019-01-31T02:35:18.864Z,99.90
2019-01-31T02:38:05.402Z,99.90
2019-01-31T02:40:39.687Z,99.90
2019-01-31T02:43:17.702Z,99.90
2019-01-31T02:46:05.975Z,99.90
2019-01-31T02:48:40.227Z,99.90
2019-01-31T02:51:28.160Z,99.90
2019-01-31T02:54:14.722Z,99.90
2019-01-31T02:56:49.317Z,99.90
2019-01-31T02:59:32.167Z,99.90
2019-01-31T03:02:12.543Z,99.90
2019-01-31T03:04:53.091Z,99.90
2019-01-31T03:07:27.411Z,99.90
2019-01-31T03:10:04.908Z,99.90
2019-01-31T03:12:57.449Z,99.90
2019-01-31T03:15:38.189Z,99.90
2019-01-31T03:18:09.726Z,99.90
2019-01-31T03:20:41.244Z,99.90
2019-01-31T03:23:15.384Z,99.90
2019-01-31T03:26:04.944Z,99.90
2019-01-31T03:28:54.152Z,99.90
2019-01-31T03:31:31.734Z,99.90
2019-01-31T03:34:18.176Z,99.90
2019-01-31T03:37:07.931Z,99.90
2019-01-31T03:40:07.139Z,99.90
2019-01-31T03:42:50.373Z,99.90
2019-01-31T03:45:33.848Z,99.90
2019-01-31T03:48:22.334Z,99.90
2019-01-31T03:51:09.022Z,99.90
2019-01-31T03:53:57.295Z,99.90
2019-01-31T03:56:34.527Z,99.90
2019-01-31T03:59:09.012Z,99.90
2019-01-31T04:01:49.186Z,99.90
2019-01-31T04:04:35.997Z,99.90
2019-01-31T04:07:04.439Z,99.90
2019-01-31T04:09:32.708Z,99.90
2019-01-31T04:12:00.971Z,99.90
2019-01-31T04:14:29.233Z,99.90
2019-01-31T04:16:57.506Z,99.90
2019-01-31T04:19:25.805Z,99.90
2019-01-31T04:21:54.071Z,99.90
2019-01-31T04:24:22.355Z,99.90
2019-01-31T04:26:50.648Z,99.90
2019-01-31T04:29:18.933Z,99.90
2019-01-31T04:31:47.191Z,99.90
2019-01-31T04:34:16.391Z,99.90
2019-01-31T04:36:44.637Z,99.90
2019-01-31T04:39:12.923Z,99.90
2019-01-31T04:41:41.215Z,99.90
2019-01-31T04:44:09.526Z,99.90
2019-01-31T04:46:38.463Z,99.90
2019-01-31T04:49:06.735Z,99.90
2019-01-31T04:51:34.999Z,99.90
2019-01-31T04:54:03.329Z,99.90
2019-01-31T04:56:31.608Z,99.90
2019-01-31T04:59:00.257Z,99.90
2019-01-31T05:01:28.580Z,99.90
2019-01-31T05:03:57.100Z,99.90
2019-01-31T05:06:25.395Z,99.90
2019-01-31T05:08:53.672Z,99.90
2019-01-31T05:11:21.916Z,99.90
2019-01-31T05:13:50.190Z,99.90
2019-01-31T05:16:18.457Z,99.90
2019-01-31T05:18:46.734Z,99.90
2019-01-31T05:21:14.992Z,99.90
2019-01-31T05:23:43.240Z,99.90
2019-01-31T05:26:11.510Z,99.90
2019-01-31T05:28:39.761Z,99.90
2019-01-31T05:31:08.048Z,99.90
2019-01-31T05:33:36.371Z,99.90
2019-01-31T05:36:04.648Z,99.90
2019-01-31T05:38:32.911Z,99.90
2019-01-31T05:41:01.200Z,99.90
2019-01-31T05:43:29.453Z,99.90
2019-01-31T05:45:57.709Z,99.90
2019-01-31T05:48:25.959Z,99.90
2019-01-31T05:50:54.230Z,99.90
2019-01-31T05:53:22.500Z,99.90
2019-01-31T05:55:50.778Z,99.90
2019-01-31T05:58:19.047Z,99.90
2019-01-31T06:00:47.312Z,99.90
2019-01-31T06:03:16.565Z,99.90
2019-01-31T06:05:44.893Z,99.90
2019-01-31T06:08:13.141Z,99.90
2019-01-31T06:10:41.430Z,99.90
2019-01-31T06:13:09.691Z,99.90
2019-01-31T06:15:38.043Z,99.90
2019-01-31T06:18:06.415Z,99.90
2019-01-31T06:20:34.676Z,99.90
2019-01-31T06:23:02.951Z,99.90
2019-01-31T06:25:31.565Z,99.90
2019-01-31T06:27:59.823Z,99.90
2019-01-31T06:30:28.118Z,99.90
2019-01-31T06:32:56.394Z,99.90
2019-01-31T06:35:24.735Z,99.90
2019-01-31T06:37:53.003Z,99.90
2019-01-31T06:40:21.783Z,99.90
2019-01-31T06:42:50.038Z,99.90
2019-01-31T06:45:20.140Z,99.90
2019-01-31T06:47:48.401Z,99.90
2019-01-31T06:50:16.779Z,99.90
2019-01-31T06:52:45.032Z,99.90
2019-01-31T06:55:13.316Z,99.90
2019-01-31T06:57:41.559Z,99.90
2019-01-31T07:00:18.783Z,99.90
2019-01-31T07:02:47.055Z,99.90
2019-01-31T07:05:15.314Z,99.90
2019-01-31T07:07:43.571Z,99.90
2019-01-31T07:10:22.570Z,99.90
2019-01-31T07:12:50.836Z,99.90
2019-01-31T07:15:19.142Z,99.90
2019-01-31T07:17:47.461Z,99.90
2019-01-31T07:20:17.064Z,99.90
2019-01-31T07:22:45.328Z,99.90
2019-01-31T07:25:19.011Z,99.90
2019-01-31T07:27:47.271Z,99.90
2019-01-31T07:30:17.483Z,99.90
2019-01-31T07:32:45.754Z,99.90
2019-01-31T07:35:14.564Z,99.90
2019-01-31T07:37:42.814Z,99.90
2019-01-31T07:40:22.027Z,99.90
2019-01-31T07:42:50.666Z,99.90
2019-01-31T07:45:21.887Z,99.90
2019-01-31T07:47:50.154Z,99.90
2019-01-31T07:50:18.995Z,99.90
2019-01-31T07:52:47.236Z,99.90
2019-01-31T07:55:15.520Z,99.90
2019-01-31T07:57:43.783Z,99.90
2019-01-31T08:00:16.999Z,99.90
2019-01-31T08:02:45.250Z,99.90
2019-01-31T08:05:15.926Z,99.90
2019-01-31T08:07:44.172Z,99.90
2019-01-31T08:10:20.715Z,99.90
2019-01-31T08:12:48.967Z,99.90
2019-01-31T08:15:18.579Z,99.90
2019-01-31T08:17:46.967Z,99.90
2019-01-31T08:20:19.727Z,99.90
2019-01-31T08:22:47.969Z,99.90
2019-01-31T08:25:19.503Z,99.90
2019-01-31T08:27:47.835Z,99.90
2019-01-31T08:30:22.559Z,99.50
2019-01-31T08:32:50.800Z,98.70
2019-01-31T08:35:19.067Z,98.20
2019-01-31T08:37:47.339Z,98.20
2019-01-31T08:40:15.611Z,98.20
2019-01-31T08:42:43.879Z,97.70
2019-01-31T08:45:13.456Z,98.00
2019-01-31T08:48:01.149Z,97.70
2019-01-31T08:50:32.375Z,97.00
2019-01-31T08:53:00.739Z,97.20
2019-01-31T08:55:29.019Z,96.90
2019-01-31T08:57:57.257Z,97.20
2019-01-31T09:00:28.772Z,97.50
2019-01-31T09:02:57.027Z,97.20
2019-01-31T09:05:25.291Z,97.00
2019-01-31T09:07:53.577Z,96.80
2019-01-31T09:10:26.841Z,97.70
2019-01-31T09:12:55.177Z,96.90
2019-01-31T09:15:24.862Z,96.90
2019-01-31T09:17:53.131Z,96.20
2019-01-31T09:20:27.267Z,96.80
2019-01-31T09:23:05.036Z,96.30
2019-01-31T09:25:51.597Z,96.30
2019-01-31T09:28:35.156Z,95.80
2019-01-31T09:31:23.099Z,95.10
2019-01-31T09:33:57.341Z,95.70
2019-01-31T09:36:52.816Z,95.00
2019-01-31T09:39:29.852Z,94.60
2019-01-31T09:42:26.253Z,94.30
2019-01-31T09:44:53.193Z,93.40
2019-01-31T09:47:27.411Z,92.50
2019-01-31T09:50:01.817Z,92.80
2019-01-31T09:52:49.863Z,92.00
2019-01-31T09:55:27.112Z,91.60
2019-01-31T09:57:58.640Z,91.70
2019-01-31T10:00:32.803Z,91.80
2019-01-31T10:03:18.867Z,92.00
2019-01-31T10:05:53.387Z,91.90
2019-01-31T10:08:30.815Z,92.00
2019-01-31T10:11:20.306Z,90.80
2019-01-31T10:13:54.419Z,90.10
2019-01-31T10:16:31.950Z,84.80
2019-01-31T10:19:36.473Z,80.70
2019-01-31T10:22:26.120Z,78.80
2019-01-31T10:25:09.419Z,79.10
2019-01-31T10:27:58.772Z,79.30
2019-01-31T10:30:47.935Z,75.20
2019-01-31T10:33:31.292Z,72.30
2019-01-31T10:36:23.245Z,78.40
2019-01-31T10:38:57.225Z,76.60
2019-01-31T10:41:45.543Z,76.30
2019-01-31T10:44:29.012Z,77.20
2019-01-31T10:47:17.023Z,76.70
2019-01-31T10:50:08.206Z,74.50
2019-01-31T10:52:48.251Z,72.30
2019-01-31T10:55:39.722Z,72.20
2019-01-31T10:58:11.249Z,71.50
2019-01-31T11:00:48.756Z,69.10
2019-01-31T11:03:32.202Z,69.80
2019-01-31T11:06:12.700Z,75.10
2019-01-31T11:08:49.819Z,74.80
2019-01-31T11:11:21.344Z,75.40
2019-01-31T11:14:05.171Z,74.10
2019-01-31T11:16:54.191Z,77.90
2019-01-31T11:19:40.616Z,80.10
2019-01-31T11:22:28.815Z,79.70
2019-01-31T11:25:12.436Z,72.70
2019-01-31T11:28:06.745Z,73.80
2019-01-31T11:30:41.098Z,69.40
2019-01-31T11:33:21.217Z,67.50
2019-01-31T11:36:07.350Z,65.40
2019-01-31T11:38:44.561Z,63.80
2019-01-31T11:41:22.063Z,64.90
2019-01-31T11:43:56.315Z,64.70
2019-01-31T11:46:48.575Z,67.00
2019-01-31T11:49:29.660Z,70.70
2019-01-31T11:52:20.244Z,72.80
2019-01-31T11:55:00.512Z,71.90
2019-01-31T11:57:50.103Z,70.80
2019-01-31T12:00:19.984Z,70.40
2019-01-31T12:02:54.704Z,70.80
2019-01-31T12:05:18.248Z,71.70
2019-01-31T12:07:47.418Z,73.40
2019-01-31T12:10:15.652Z,68.00
2019-01-31T12:12:44.030Z,68.80
2019-01-31T12:15:12.355Z,72.10
2019-01-31T12:17:40.615Z,73.20
2019-01-31T12:20:13.540Z,72.70
2019-01-31T12:22:42.122Z,72.90
2019-01-31T12:25:10.385Z,69.10
2019-01-31T12:27:38.738Z,64.70
2019-01-31T12:30:10.419Z,73.60
2019-01-31T12:32:38.682Z,65.80
2019-01-31T12:35:06.944Z,60.10
2019-01-31T12:37:35.215Z,61.10
2019-01-31T12:40:04.720Z,66.00
2019-01-31T12:42:33.009Z,60.80
2019-01-31T12:45:01.335Z,55.30
2019-01-31T12:47:29.619Z,55.50
2019-01-31T12:49:57.876Z,64.90
2019-01-31T12:52:26.159Z,58.60
2019-01-31T12:54:54.415Z,56.70
2019-01-31T12:57:22.681Z,52.90
2019-01-31T12:59:50.943Z,52.90
2019-01-31T13:02:19.220Z,56.00
2019-01-31T13:04:47.759Z,51.90
2019-01-31T13:07:16.035Z,49.20
2019-01-31T13:09:44.295Z,49.90
2019-01-31T13:12:12.580Z,53.70
2019-01-31T13:14:40.836Z,52.90
2019-01-31T13:17:09.096Z,53.20
2019-01-31T13:19:37.352Z,55.50
2019-01-31T13:22:05.608Z,58.20
2019-01-31T13:24:33.879Z,61.70
2019-01-31T13:27:02.116Z,64.20
2019-01-31T13:29:30.408Z,66.50
2019-01-31T13:31:58.656Z,70.60
2019-01-31T13:34:26.933Z,72.20
2019-01-31T13:36:55.229Z,73.20
2019-01-31T13:39:23.576Z,74.50
2019-01-31T13:41:51.831Z,75.70
2019-01-31T13:44:20.097Z,77.80
2019-01-31T13:46:48.351Z,78.00
2019-01-31T13:49:18.040Z,80.50
2019-01-31T13:51:46.471Z,80.80
2019-01-31T13:54:14.744Z,81.10
2019-01-31T13:56:45.764Z,82.30
2019-01-31T13:59:12.971Z,82.50
2019-01-31T14:01:41.223Z,83.40
2019-01-31T14:04:09.535Z,83.90
2019-01-31T14:06:37.839Z,84.30
2019-01-31T14:09:07.704Z,84.10
2019-01-31T14:11:35.944Z,84.60
2019-01-31T14:14:09.305Z,84.80
2019-01-31T14:16:34.260Z,86.10
2019-01-31T14:19:02.544Z,85.60
2019-01-31T14:21:30.832Z,85.30
2019-01-31T14:23:59.101Z,85.70
2019-01-31T14:26:27.340Z,86.10
2019-01-31T14:28:55.596Z,86.20
2019-01-31T14:31:23.855Z,86.30
2019-01-31T14:33:52.113Z,87.40
2019-01-31T14:36:20.442Z,88.20
2019-01-31T14:38:48.719Z,89.10
2019-01-31T14:41:18.191Z,89.20
2019-01-31T14:43:46.462Z,90.00
2019-01-31T14:46:14.715Z,90.10
2019-01-31T14:48:43.091Z,90.60
2019-01-31T14:51:11.347Z,90.60
2019-01-31T14:53:39.631Z,90.40
2019-01-31T14:56:07.887Z,90.60
2019-01-31T14:58:36.144Z,89.60
2019-01-31T15:01:04.404Z,87.90
2019-01-31T15:03:32.714Z,88.60
2019-01-31T15:06:01.007Z,86.90
2019-01-31T15:08:29.303Z,87.10
2019-01-31T15:10:57.579Z,87.30
2019-01-31T15:13:25.822Z,88.20
2019-01-31T15:15:54.108Z,90.20
2019-01-31T15:18:22.413Z,90.40
2019-01-31T15:20:50.682Z,91.50
2019-01-31T15:23:18.938Z,91.40
2019-01-31T15:25:48.020Z,91.80
2019-01-31T15:28:16.274Z,91.50
2019-01-31T15:30:44.551Z,92.30
2019-01-31T15:33:12.815Z,92.70
2019-01-31T15:35:41.161Z,93.20
2019-01-31T15:38:09.419Z,93.30
2019-01-31T15:40:42.981Z,93.20
2019-01-31T15:43:11.241Z,93.20
2019-01-31T15:45:39.507Z,93.60
2019-01-31T15:48:10.592Z,94.30
2019-01-31T15:50:38.487Z,94.20
2019-01-31T15:53:06.744Z,94.30
2019-01-31T15:55:35.079Z,94.90
2019-01-31T15:58:03.340Z,95.10
2019-01-31T16:00:41.869Z,95.00
2019-01-31T16:03:11.960Z,95.10
2019-01-31T16:05:40.235Z,95.40
2019-01-31T16:08:08.922Z,95.30
2019-01-31T16:10:37.188Z,95.70
2019-01-31T16:13:05.650Z,95.70
2019-01-31T16:15:34.307Z,96.10
2019-01-31T16:18:02.608Z,96.30
2019-01-31T16:20:30.883Z,96.90
2019-01-31T16:22:59.139Z,97.40
2019-01-31T16:25:27.487Z,98.10
2019-01-31T16:27:55.814Z,98.70
2019-01-31T16:30:24.160Z,99.10
2019-01-31T16:32:52.425Z,99.50
2019-01-31T16:35:20.755Z,99.90
2019-01-31T16:37:49.948Z,99.90
2019-01-31T16:40:18.759Z,99.90
2019-01-31T16:42:47.018Z,99.90
2019-01-31T16:45:16.224Z,99.90
2019-01-31T16:47:44.476Z,99.90
2019-01-31T16:50:15.989Z,99.90
2019-01-31T16:52:44.312Z,99.90
2019-01-31T16:55:14.640Z,99.90
2019-01-31T16:57:42.955Z,99.90
2019-01-31T17:00:22.799Z,99.90
2019-01-31T17:02:51.077Z,99.90
2019-01-31T17:05:21.355Z,99.90
2019-01-31T17:07:49.696Z,99.90
2019-01-31T17:10:18.337Z,99.90
2019-01-31T17:12:46.773Z,99.90
2019-01-31T17:15:18.160Z,99.90
2019-01-31T17:17:46.413Z,99.90
2019-01-31T17:20:20.895Z,99.90
2019-01-31T17:22:49.152Z,99.90
2019-01-31T17:25:18.613Z,99.90
2019-01-31T17:27:47.088Z,99.90
2019-01-31T17:30:22.728Z,99.90
2019-01-31T17:32:51.054Z,99.90
2019-01-31T17:35:19.329Z,99.90
2019-01-31T17:37:48.322Z,99.90
2019-01-31T17:40:25.098Z,99.90
2019-01-31T17:42:53.354Z,99.90
2019-01-31T17:45:30.062Z,99.90
2019-01-31T17:47:51.714Z,99.90
2019-01-31T17:50:20.059Z,99.90
2019-01-31T17:52:48.323Z,99.90
2019-01-31T17:55:18.939Z,99.90
2019-01-31T17:57:47.184Z,99.90
2019-01-31T18:00:24.327Z,99.90
2019-01-31T18:02:51.684Z,99.90
2019-01-31T18:05:19.957Z,99.90
2019-01-31T18:07:48.388Z,99.90
2019-01-31T18:10:19.359Z,99.90
2019-01-31T18:12:48.388Z,99.90
2019-01-31T18:15:16.676Z,99.90
2019-01-31T18:17:44.946Z,99.90
2019-01-31T18:20:16.085Z,99.90
2019-01-31T18:22:44.363Z,99.90
2019-01-31T18:25:12.627Z,99.90
2019-01-31T18:27:40.919Z,99.90
2019-01-31T18:30:21.041Z,99.90
2019-01-31T18:32:49.321Z,99.90
2019-01-31T18:35:18.549Z,99.90
2019-01-31T18:37:46.888Z,99.90
2019-01-31T18:40:25.905Z,99.90
2019-01-31T18:42:54.237Z,99.90
2019-01-31T18:45:24.448Z,99.90
2019-01-31T18:47:52.719Z,99.90
2019-01-31T18:50:23.227Z,99.90
2019-01-31T18:52:51.509Z,99.90
2019-01-31T18:55:19.868Z,99.90
2019-01-31T18:57:48.499Z,99.90
2019-01-31T19:00:21.659Z,99.90
2019-01-31T19:02:49.939Z,99.90
2019-01-31T19:05:18.504Z,99.90
2019-01-31T19:07:46.784Z,99.90
2019-01-31T19:10:15.654Z,99.90
2019-01-31T19:12:43.931Z,99.90
2019-01-31T19:15:15.027Z,99.90
2019-01-31T19:17:43.322Z,99.90
2019-01-31T19:20:19.771Z,99.90
2019-01-31T19:22:48.561Z,99.90
2019-01-31T19:25:18.883Z,99.90
2019-01-31T19:27:47.293Z,99.90
2019-01-31T19:30:27.202Z,99.90
2019-01-31T19:32:55.761Z,99.90
2019-01-31T19:35:24.261Z,99.90
2019-01-31T19:38:01.444Z,99.90
2019-01-31T19:40:25.541Z,99.90
2019-01-31T19:42:54.212Z,99.90
2019-01-31T19:45:28.335Z,99.90
2019-01-31T19:47:56.748Z,99.90
2019-01-31T19:50:25.175Z,99.90
2019-01-31T19:52:53.634Z,99.90
2019-01-31T19:55:22.077Z,99.90
2019-01-31T19:57:50.437Z,99.90
2019-01-31T20:00:21.556Z,99.90
2019-01-31T20:02:49.842Z,99.90
2019-01-31T20:05:18.655Z,99.90
2019-01-31T20:07:46.912Z,99.90
2019-01-31T20:10:23.776Z,99.90
2019-01-31T20:12:52.047Z,99.90
2019-01-31T20:15:20.307Z,99.90
2019-01-31T20:17:48.769Z,99.90
2019-01-31T20:20:25.352Z,99.90
2019-01-31T20:22:54.493Z,99.90
2019-01-31T20:25:23.009Z,99.90
2019-01-31T20:27:51.300Z,99.90
2019-01-31T20:30:22.818Z,99.90
2019-01-31T20:32:51.198Z,99.90
2019-01-31T20:35:20.899Z,99.90
2019-01-31T20:37:49.163Z,99.90
2019-01-31T20:40:26.173Z,99.90
2019-01-31T20:42:54.453Z,99.90
2019-01-31T20:45:22.755Z,99.90
2019-01-31T20:47:51.021Z,99.90
2019-01-31T20:50:25.487Z,99.90
2019-01-31T20:52:53.747Z,99.90
2019-01-31T20:55:22.127Z,99.90
2019-01-31T20:57:50.384Z,99.90
2019-01-31T21:00:36.944Z,99.90
2019-01-31T21:03:07.028Z,99.90
2019-01-31T21:05:35.305Z,99.90
2019-01-31T21:08:03.987Z,99.90
2019-01-31T21:10:32.380Z,99.90
2019-01-31T21:13:00.651Z,99.90
2019-01-31T21:15:28.943Z,99.90
2019-01-31T21:17:57.215Z,99.90
2019-01-31T21:20:26.864Z,99.90
2019-01-31T21:22:55.269Z,99.90
2019-01-31T21:25:23.678Z,99.90
2019-01-31T21:27:52.085Z,99.90
2019-01-31T21:30:22.895Z,99.90
2019-01-31T21:32:51.162Z,99.90
2019-01-31T21:35:20.000Z,99.90
2019-01-31T21:37:48.873Z,99.90
2019-01-31T21:40:18.889Z,99.90
2019-01-31T21:42:47.159Z,99.90
2019-01-31T21:45:18.034Z,99.90
2019-01-31T21:47:46.328Z,99.90
2019-01-31T21:50:17.380Z,99.90
2019-01-31T21:52:45.659Z,99.90
2019-01-31T21:55:14.671Z,99.90
2019-01-31T21:57:42.930Z,99.90
2019-01-31T22:00:16.988Z,99.90
2019-01-31T22:02:45.312Z,99.90
2019-01-31T22:05:15.224Z,99.90
2019-01-31T22:07:43.607Z,99.90
2019-01-31T22:10:14.126Z,99.90
2019-01-31T22:12:42.551Z,99.90
2019-01-31T22:15:25.454Z,99.90
2019-01-31T22:17:53.711Z,99.90
2019-01-31T22:20:21.974Z,99.90
2019-01-31T22:22:50.235Z,99.90
2019-01-31T22:25:22.454Z,99.90
2019-01-31T22:27:50.735Z,99.90
2019-01-31T22:30:24.657Z,99.90
2019-01-31T22:32:52.991Z,99.90
2019-01-31T22:35:21.289Z,99.90
2019-01-31T22:37:49.723Z,99.90
2019-01-31T22:40:18.919Z,99.90
2019-01-31T22:42:47.216Z,99.90
2019-01-31T22:45:22.890Z,99.90
2019-01-31T22:47:51.147Z,99.90
2019-01-31T22:50:21.066Z,99.90
2019-01-31T22:52:49.403Z,99.90
2019-01-31T22:55:19.545Z,99.90
2019-01-31T22:57:47.921Z,99.90
2019-01-31T23:00:32.568Z,99.90
2019-01-31T23:03:00.900Z,99.90
2019-01-31T23:05:29.184Z,99.90
2019-01-31T23:07:57.452Z,99.90
2019-01-31T23:10:25.761Z,99.90
2019-01-31T23:12:54.047Z,99.90
2019-01-31T23:15:22.308Z,99.90
2019-01-31T23:17:50.579Z,99.90
2019-01-31T23:20:19.139Z,99.90
2019-01-31T23:22:47.429Z,99.90
2019-01-31T23:25:15.771Z,99.90
2019-01-31T23:27:44.095Z,99.90
2019-01-31T23:30:14.819Z,99.90
2019-01-31T23:32:43.087Z,99.90
2019-01-31T23:35:11.348Z,99.90
2019-01-31T23:37:39.681Z,99.90
2019-01-31T23:40:12.321Z,99.90
2019-01-31T23:42:40.595Z,99.90
2019-01-31T23:45:18.005Z,99.90
2019-01-31T23:47:48.985Z,99.90
2019-01-31T23:50:16.279Z,99.90
2019-01-31T23:52:44.536Z,99.90
2019-01-31T23:55:14.524Z,99.90
2019-01-31T23:57:42.811Z,99.90
